sensor_id;sensor_type;location;lat;lon;timestamp;P1;durP1;ratioP1;P2;durP2;ratioP2
38220;SDS011;24023;51.280;7.148;2024-02-04T00:00:17;3.8;;;3.5;;
38220;SDS011;24023;51.280;7.148;2024-02-04T00:05:09;3.8;;;3.5;;
38220;SDS011;24023;51.280;7.148;2024-02-04T00:10:11;3.4;;;3.1;;
38220;SDS011;24023;51.280;7.148;2024-02-04T00:15:11;3.4;;;3.1;;
38220;SDS011;24023;51.280;7.148;2024-02-04T00:20:11;3.3;;;3.0;;
38220;SDS011;24023;51.280;7.148;2024-02-04T00:25:12;3.3;;;3.0;;
38220;SDS011;24023;51.280;7.148;2024-02-04T00:30:13;3.3;;;3.0;;
38220;SDS011;24023;51.280;7.148;2024-02-04T00:35:09;3.4;;;3.1;;
38220;SDS011;24023;51.280;7.148;2024-02-04T00:40:12;3.4;;;3.1;;
38220;SDS011;24023;51.280;7.148;2024-02-04T00:45:13;2.5;;;2.3;;
38220;SDS011;24023;51.280;7.148;2024-02-04T00:50:12;2.5;;;2.3;;
38220;SDS011;24023;51.280;7.148;2024-02-04T00:55:10;0.9;;;0.9;;
38220;SDS011;24023;51.280;7.148;2024-02-04T01:00:17;0.9;;;0.9;;
38220;SDS011;24023;51.280;7.148;2024-02-04T01:05:10;0.9;;;0.9;;
38220;SDS011;24023;51.280;7.148;2024-02-04T01:10:12;1.5;;;1.0;;
38220;SDS011;24023;51.280;7.148;2024-02-04T01:15:11;1.5;;;1.0;;
38220;SDS011;24023;51.280;7.148;2024-02-04T01:20:11;2.1;;;0.7;;
38220;SDS011;24023;51.280;7.148;2024-02-04T01:25:10;2.1;;;0.7;;
38220;SDS011;24023;51.280;7.148;2024-02-04T01:30:14;2.1;;;0.7;;
38220;SDS011;24023;51.280;7.148;2024-02-04T01:35:10;0.6;;;0.3;;
38220;SDS011;24023;51.280;7.148;2024-02-04T01:40:12;0.6;;;0.3;;
38220;SDS011;24023;51.280;7.148;2024-02-04T01:45:13;0.5;;;0.4;;
38220;SDS011;24023;51.280;7.148;2024-02-04T01:50:12;0.5;;;0.4;;
38220;SDS011;24023;51.280;7.148;2024-02-04T01:55:10;1.2;;;1.1;;
38220;SDS011;24023;51.280;7.148;2024-02-04T02:00:18;1.2;;;1.1;;
38220;SDS011;24023;51.280;7.148;2024-02-04T02:05:10;1.2;;;1.1;;
38220;SDS011;24023;51.280;7.148;2024-02-04T02:10:12;1.1;;;1.0;;
38220;SDS011;24023;51.280;7.148;2024-02-04T02:15:11;1.1;;;1.0;;
38220;SDS011;24023;51.280;7.148;2024-02-04T02:20:13;1.4;;;1.3;;
38220;SDS011;24023;51.280;7.148;2024-02-04T02:25:09;1.4;;;1.3;;
38220;SDS011;24023;51.280;7.148;2024-02-04T02:30:14;1.4;;;1.3;;
38220;SDS011;24023;51.280;7.148;2024-02-04T02:35:09;1.4;;;1.3;;
38220;SDS011;24023;51.280;7.148;2024-02-04T02:40:14;1.4;;;1.3;;
38220;SDS011;24023;51.280;7.148;2024-02-04T02:45:13;1.4;;;1.3;;
38220;SDS011;24023;51.280;7.148;2024-02-04T02:50:12;1.4;;;1.3;;
38220;SDS011;24023;51.280;7.148;2024-02-04T02:55:09;1.4;;;1.3;;
38220;SDS011;24023;51.280;7.148;2024-02-04T03:00:18;1.8;;;1.7;;
38220;SDS011;24023;51.280;7.148;2024-02-04T03:05:09;1.8;;;1.7;;
38220;SDS011;24023;51.280;7.148;2024-02-04T03:10:12;2.2;;;2.0;;
38220;SDS011;24023;51.280;7.148;2024-02-04T03:15:11;2.2;;;2.0;;
38220;SDS011;24023;51.280;7.148;2024-02-04T03:20:12;2.2;;;2.0;;
38220;SDS011;24023;51.280;7.148;2024-02-04T03:25:09;2.5;;;2.3;;
38220;SDS011;24023;51.280;7.148;2024-02-04T03:30:14;2.5;;;2.3;;
38220;SDS011;24023;51.280;7.148;2024-02-04T03:35:10;2.9;;;2.7;;
38220;SDS011;24023;51.280;7.148;2024-02-04T03:40:12;2.9;;;2.7;;
38220;SDS011;24023;51.280;7.148;2024-02-04T03:45:14;1.3;;;1.2;;
38220;SDS011;24023;51.280;7.148;2024-02-04T03:50:12;1.3;;;1.2;;
38220;SDS011;24023;51.280;7.148;2024-02-04T03:55:09;1.3;;;1.2;;
38220;SDS011;24023;51.280;7.148;2024-02-04T04:00:18;0.9;;;0.9;;
38220;SDS011;24023;51.280;7.148;2024-02-04T04:05:10;0.9;;;0.9;;
38220;SDS011;24023;51.280;7.148;2024-02-04T04:10:12;1.1;;;0.7;;
38220;SDS011;24023;51.280;7.148;2024-02-04T04:15:11;1.1;;;0.7;;
38220;SDS011;24023;51.280;7.148;2024-02-04T04:20:12;1.1;;;0.7;;
38220;SDS011;24023;51.280;7.148;2024-02-04T04:25:09;1.2;;;1.1;;
38220;SDS011;24023;51.280;7.148;2024-02-04T04:30:13;1.2;;;1.1;;
38220;SDS011;24023;51.280;7.148;2024-02-04T04:35:09;4.5;;;4.2;;
38220;SDS011;24023;51.280;7.148;2024-02-04T04:40:12;4.5;;;4.2;;
38220;SDS011;24023;51.280;7.148;2024-02-04T04:45:13;4.5;;;4.2;;
38220;SDS011;24023;51.280;7.148;2024-02-04T04:50:12;5.1;;;4.7;;
38220;SDS011;24023;51.280;7.148;2024-02-04T04:55:09;5.1;;;4.7;;
38220;SDS011;24023;51.280;7.148;2024-02-04T05:00:18;5.6;;;5.1;;
38220;SDS011;24023;51.280;7.148;2024-02-04T05:05:10;5.6;;;5.1;;
38220;SDS011;24023;51.280;7.148;2024-02-04T05:10:22;6.7;;;6.2;;
38220;SDS011;24023;51.280;7.148;2024-02-04T05:15:11;6.7;;;6.2;;
38220;SDS011;24023;51.280;7.148;2024-02-04T05:20:12;6.7;;;6.2;;
38220;SDS011;24023;51.280;7.148;2024-02-04T05:25:10;7.0;;;6.4;;
38220;SDS011;24023;51.280;7.148;2024-02-04T05:30:13;7.0;;;6.4;;
38220;SDS011;24023;51.280;7.148;2024-02-04T05:35:10;8.9;;;7.2;;
38220;SDS011;24023;51.280;7.148;2024-02-04T05:40:11;8.9;;;7.2;;
38220;SDS011;24023;51.280;7.148;2024-02-04T05:45:13;8.9;;;7.2;;
38220;SDS011;24023;51.280;7.148;2024-02-04T05:50:11;8.2;;;7.4;;
38220;SDS011;24023;51.280;7.148;2024-02-04T05:55:10;8.2;;;7.4;;
38220;SDS011;24023;51.280;7.148;2024-02-04T06:00:17;8.5;;;7.7;;
38220;SDS011;24023;51.280;7.148;2024-02-04T06:05:10;8.5;;;7.7;;
38220;SDS011;24023;51.280;7.148;2024-02-04T06:10:12;9.1;;;8.3;;
38220;SDS011;24023;51.280;7.148;2024-02-04T06:15:12;9.1;;;8.3;;
38220;SDS011;24023;51.280;7.148;2024-02-04T06:20:11;9.1;;;8.3;;
38220;SDS011;24023;51.280;7.148;2024-02-04T06:25:09;8.9;;;8.0;;
38220;SDS011;24023;51.280;7.148;2024-02-04T06:30:13;8.9;;;8.0;;
38220;SDS011;24023;51.280;7.148;2024-02-04T06:35:09;10.5;;;9.5;;
38220;SDS011;24023;51.280;7.148;2024-02-04T06:40:11;10.5;;;9.5;;
38220;SDS011;24023;51.280;7.148;2024-02-04T06:45:13;10.5;;;9.5;;
38220;SDS011;24023;51.280;7.148;2024-02-04T06:50:14;9.1;;;8.3;;
38220;SDS011;24023;51.280;7.148;2024-02-04T06:55:11;7.2;;;6.5;;
38220;SDS011;24023;51.280;7.148;2024-02-04T07:00:18;7.2;;;6.5;;
38220;SDS011;24023;51.280;7.148;2024-02-04T07:05:11;7.2;;;6.5;;
38220;SDS011;24023;51.280;7.148;2024-02-04T07:10:11;8.5;;;7.6;;
38220;SDS011;24023;51.280;7.148;2024-02-04T07:15:11;6.3;;;5.7;;
38220;SDS011;24023;51.280;7.148;2024-02-04T07:20:12;6.3;;;5.7;;
38220;SDS011;24023;51.280;7.148;2024-02-04T07:25:10;6.3;;;5.7;;
38220;SDS011;24023;51.280;7.148;2024-02-04T07:30:14;5.2;;;4.7;;
38220;SDS011;24023;51.280;7.148;2024-02-04T07:35:10;5.2;;;4.7;;
38220;SDS011;24023;51.280;7.148;2024-02-04T07:40:12;5.4;;;4.9;;
38220;SDS011;24023;51.280;7.148;2024-02-04T07:45:13;5.4;;;4.9;;
38220;SDS011;24023;51.280;7.148;2024-02-04T07:50:12;3.9;;;3.6;;
38220;SDS011;24023;51.280;7.148;2024-02-04T07:55:09;3.9;;;3.6;;
38220;SDS011;24023;51.280;7.148;2024-02-04T08:00:18;3.9;;;3.6;;
38220;SDS011;24023;51.280;7.148;2024-02-04T08:05:10;2.9;;;2.7;;
38220;SDS011;24023;51.280;7.148;2024-02-04T08:10:12;2.9;;;2.7;;
38220;SDS011;24023;51.280;7.148;2024-02-04T08:15:11;2.8;;;2.6;;
38220;SDS011;24023;51.280;7.148;2024-02-04T08:20:12;2.8;;;2.6;;
38220;SDS011;24023;51.280;7.148;2024-02-04T08:25:10;2.8;;;2.6;;
38220;SDS011;24023;51.280;7.148;2024-02-04T08:30:14;1.7;;;1.3;;
38220;SDS011;24023;51.280;7.148;2024-02-04T08:35:09;1.7;;;1.3;;
38220;SDS011;24023;51.280;7.148;2024-02-04T08:40:12;1.2;;;1.0;;
38220;SDS011;24023;51.280;7.148;2024-02-04T08:45:13;1.2;;;1.0;;
38220;SDS011;24023;51.280;7.148;2024-02-04T08:50:13;1.2;;;1.0;;
38220;SDS011;24023;51.280;7.148;2024-02-04T08:55:10;2.4;;;2.2;;
38220;SDS011;24023;51.280;7.148;2024-02-04T09:00:18;2.4;;;2.2;;
38220;SDS011;24023;51.280;7.148;2024-02-04T09:05:09;3.0;;;2.8;;
38220;SDS011;24023;51.280;7.148;2024-02-04T09:10:12;3.0;;;2.8;;
38220;SDS011;24023;51.280;7.148;2024-02-04T09:15:11;3.0;;;2.8;;
38220;SDS011;24023;51.280;7.148;2024-02-04T09:20:12;2.6;;;2.4;;
38220;SDS011;24023;51.280;7.148;2024-02-04T09:25:10;2.6;;;2.4;;
38220;SDS011;24023;51.280;7.148;2024-02-04T09:30:14;3.3;;;3.0;;
38220;SDS011;24023;51.280;7.148;2024-02-04T09:35:10;3.3;;;3.0;;
38220;SDS011;24023;51.280;7.148;2024-02-04T09:40:12;4.2;;;3.3;;
38220;SDS011;24023;51.280;7.148;2024-02-04T09:45:13;4.2;;;3.3;;
38220;SDS011;24023;51.280;7.148;2024-02-04T09:50:12;4.2;;;3.3;;
38220;SDS011;24023;51.280;7.148;2024-02-04T09:55:09;2.9;;;2.7;;
38220;SDS011;24023;51.280;7.148;2024-02-04T10:00:18;2.9;;;2.7;;
38220;SDS011;24023;51.280;7.148;2024-02-04T10:05:11;2.7;;;2.3;;
38220;SDS011;24023;51.280;7.148;2024-02-04T10:10:11;2.7;;;2.3;;
38220;SDS011;24023;51.280;7.148;2024-02-04T10:15:11;2.7;;;2.3;;
38220;SDS011;24023;51.280;7.148;2024-02-04T10:20:12;2.1;;;1.9;;
38220;SDS011;24023;51.280;7.148;2024-02-04T10:25:10;5.5;;;3.7;;
38220;SDS011;24023;51.280;7.148;2024-02-04T10:30:13;5.5;;;3.7;;
38220;SDS011;24023;51.280;7.148;2024-02-04T10:35:11;6.5;;;5.4;;
38220;SDS011;24023;51.280;7.148;2024-02-04T10:40:12;6.5;;;5.4;;
38220;SDS011;24023;51.280;7.148;2024-02-04T10:45:13;4.8;;;4.3;;
38220;SDS011;24023;51.280;7.148;2024-02-04T10:50:11;4.8;;;4.3;;
38220;SDS011;24023;51.280;7.148;2024-02-04T10:55:10;2.2;;;2.0;;
38220;SDS011;24023;51.280;7.148;2024-02-04T11:00:18;2.2;;;2.0;;
38220;SDS011;24023;51.280;7.148;2024-02-04T11:05:10;2.2;;;2.0;;
38220;SDS011;24023;51.280;7.148;2024-02-04T11:10:11;3.5;;;2.4;;
38220;SDS011;24023;51.280;7.148;2024-02-04T11:15:12;3.5;;;2.4;;
38220;SDS011;24023;51.280;7.148;2024-02-04T11:20:18;3.0;;;2.2;;
38220;SDS011;24023;51.280;7.148;2024-02-04T11:25:15;3.0;;;2.2;;
38220;SDS011;24023;51.280;7.148;2024-02-04T11:30:14;1.9;;;1.7;;
38220;SDS011;24023;51.280;7.148;2024-02-04T11:35:11;1.9;;;1.7;;
38220;SDS011;24023;51.280;7.148;2024-02-04T11:40:14;1.9;;;1.7;;
38220;SDS011;24023;51.280;7.148;2024-02-04T11:45:14;2.3;;;1.3;;
38220;SDS011;24023;51.280;7.148;2024-02-04T11:50:12;2.3;;;1.3;;
38220;SDS011;24023;51.280;7.148;2024-02-04T11:55:12;2.5;;;2.3;;
38220;SDS011;24023;51.280;7.148;2024-02-04T12:00:18;2.5;;;2.3;;
38220;SDS011;24023;51.280;7.148;2024-02-04T12:05:10;19.7;;;11.8;;
38220;SDS011;24023;51.280;7.148;2024-02-04T12:10:12;19.7;;;11.8;;
38220;SDS011;24023;51.280;7.148;2024-02-04T12:15:11;3.1;;;2.5;;
38220;SDS011;24023;51.280;7.148;2024-02-04T12:20:12;3.1;;;2.5;;
38220;SDS011;24023;51.280;7.148;2024-02-04T12:25:09;3.1;;;2.5;;
38220;SDS011;24023;51.280;7.148;2024-02-04T12:30:14;2.6;;;2.0;;
38220;SDS011;24023;51.280;7.148;2024-02-04T12:35:13;2.6;;;2.0;;
38220;SDS011;24023;51.280;7.148;2024-02-04T12:40:20;3.4;;;2.2;;
38220;SDS011;24023;51.280;7.148;2024-02-04T12:45:14;3.4;;;2.2;;
38220;SDS011;24023;51.280;7.148;2024-02-04T12:50:12;2.8;;;2.3;;
38220;SDS011;24023;51.280;7.148;2024-02-04T12:55:18;2.8;;;2.3;;
38220;SDS011;24023;51.280;7.148;2024-02-04T13:00:18;2.8;;;2.3;;
38220;SDS011;24023;51.280;7.148;2024-02-04T13:05:09;2.6;;;2.1;;
38220;SDS011;24023;51.280;7.148;2024-02-04T13:10:13;2.6;;;2.1;;
38220;SDS011;24023;51.280;7.148;2024-02-04T13:15:11;1.5;;;1.4;;
38220;SDS011;24023;51.280;7.148;2024-02-04T13:20:12;1.5;;;1.4;;
38220;SDS011;24023;51.280;7.148;2024-02-04T13:25:09;1.5;;;1.4;;
38220;SDS011;24023;51.280;7.148;2024-02-04T13:30:14;1.9;;;1.2;;
38220;SDS011;24023;51.280;7.148;2024-02-04T13:35:10;1.9;;;1.2;;
38220;SDS011;24023;51.280;7.148;2024-02-04T13:40:11;1.6;;;1.1;;
38220;SDS011;24023;51.280;7.148;2024-02-04T13:45:15;1.6;;;1.1;;
38220;SDS011;24023;51.280;7.148;2024-02-04T13:50:12;1.6;;;1.1;;
38220;SDS011;24023;51.280;7.148;2024-02-04T13:55:09;1.5;;;1.0;;
38220;SDS011;24023;51.280;7.148;2024-02-04T14:00:18;1.5;;;1.0;;
38220;SDS011;24023;51.280;7.148;2024-02-04T14:05:09;2.2;;;1.2;;
38220;SDS011;24023;51.280;7.148;2024-02-04T14:10:13;2.2;;;1.2;;
38220;SDS011;24023;51.280;7.148;2024-02-04T14:15:10;2.2;;;1.2;;
38220;SDS011;24023;51.280;7.148;2024-02-04T14:20:12;2.4;;;1.6;;
38220;SDS011;24023;51.280;7.148;2024-02-04T14:25:10;2.4;;;1.6;;
38220;SDS011;24023;51.280;7.148;2024-02-04T14:30:13;2.1;;;1.6;;
38220;SDS011;24023;51.280;7.148;2024-02-04T14:35:10;2.1;;;1.6;;
38220;SDS011;24023;51.280;7.148;2024-02-04T14:40:12;3.6;;;2.1;;
38220;SDS011;24023;51.280;7.148;2024-02-04T14:45:14;3.6;;;2.1;;
38220;SDS011;24023;51.280;7.148;2024-02-04T14:50:13;3.6;;;2.1;;
38220;SDS011;24023;51.280;7.148;2024-02-04T14:55:10;3.9;;;2.3;;
38220;SDS011;24023;51.280;7.148;2024-02-04T15:00:18;3.9;;;2.3;;
38220;SDS011;24023;51.280;7.148;2024-02-04T15:05:09;4.1;;;2.2;;
38220;SDS011;24023;51.280;7.148;2024-02-04T15:10:11;4.1;;;2.2;;
38220;SDS011;24023;51.280;7.148;2024-02-04T15:15:12;2.0;;;1.8;;
38220;SDS011;24023;51.280;7.148;2024-02-04T15:20:13;2.0;;;1.8;;
38220;SDS011;24023;51.280;7.148;2024-02-04T15:25:10;2.0;;;1.8;;
38220;SDS011;24023;51.280;7.148;2024-02-04T15:30:14;3.4;;;2.3;;
38220;SDS011;24023;51.280;7.148;2024-02-04T15:35:11;3.4;;;2.3;;
38220;SDS011;24023;51.280;7.148;2024-02-04T15:40:13;4.4;;;3.5;;
38220;SDS011;24023;51.280;7.148;2024-02-04T15:45:15;3.1;;;1.8;;
38220;SDS011;24023;51.280;7.148;2024-02-04T15:50:14;3.1;;;1.8;;
38220;SDS011;24023;51.280;7.148;2024-02-04T15:55:10;3.1;;;1.8;;
38220;SDS011;24023;51.280;7.148;2024-02-04T16:00:20;4.0;;;2.2;;
38220;SDS011;24023;51.280;7.148;2024-02-04T16:05:10;4.0;;;2.2;;
38220;SDS011;24023;51.280;7.148;2024-02-04T16:10:13;2.9;;;1.5;;
38220;SDS011;24023;51.280;7.148;2024-02-04T16:15:12;2.9;;;1.5;;
38220;SDS011;24023;51.280;7.148;2024-02-04T16:20:12;2.3;;;1.5;;
38220;SDS011;24023;51.280;7.148;2024-02-04T16:25:10;2.3;;;1.5;;
38220;SDS011;24023;51.280;7.148;2024-02-04T16:30:14;2.3;;;1.5;;
38220;SDS011;24023;51.280;7.148;2024-02-04T16:35:10;3.1;;;1.7;;
38220;SDS011;24023;51.280;7.148;2024-02-04T16:40:14;3.1;;;1.7;;
38220;SDS011;24023;51.280;7.148;2024-02-04T16:45:13;2.0;;;1.6;;
38220;SDS011;24023;51.280;7.148;2024-02-04T16:50:12;2.0;;;1.6;;
38220;SDS011;24023;51.280;7.148;2024-02-04T16:55:10;2.0;;;1.6;;
38220;SDS011;24023;51.280;7.148;2024-02-04T17:00:18;1.9;;;1.3;;
38220;SDS011;24023;51.280;7.148;2024-02-04T17:05:12;1.9;;;1.3;;
38220;SDS011;24023;51.280;7.148;2024-02-04T17:10:12;1.9;;;1.2;;
38220;SDS011;24023;51.280;7.148;2024-02-04T17:15:14;1.9;;;1.2;;
38220;SDS011;24023;51.280;7.148;2024-02-04T17:20:13;1.9;;;1.2;;
38220;SDS011;24023;51.280;7.148;2024-02-04T17:25:11;1.6;;;1.2;;
38220;SDS011;24023;51.280;7.148;2024-02-04T17:30:15;1.6;;;1.2;;
38220;SDS011;24023;51.280;7.148;2024-02-04T17:35:10;1.9;;;1.5;;
38220;SDS011;24023;51.280;7.148;2024-02-04T17:40:12;1.9;;;1.5;;
38220;SDS011;24023;51.280;7.148;2024-02-04T17:45:28;1.9;;;1.5;;
38220;SDS011;24023;51.280;7.148;2024-02-04T17:50:12;1.9;;;1.5;;
38220;SDS011;24023;51.280;7.148;2024-02-04T18:00:17;3.2;;;1.3;;
38220;SDS011;24023;51.280;7.148;2024-02-04T18:05:09;3.2;;;1.3;;
38220;SDS011;24023;51.280;7.148;2024-02-04T18:10:11;2.8;;;1.6;;
38220;SDS011;24023;51.280;7.148;2024-02-04T18:15:11;2.8;;;1.6;;
38220;SDS011;24023;51.280;7.148;2024-02-04T18:20:12;4.1;;;1.9;;
38220;SDS011;24023;51.280;7.148;2024-02-04T18:25:11;4.1;;;1.9;;
38220;SDS011;24023;51.280;7.148;2024-02-04T18:30:16;4.1;;;1.9;;
38220;SDS011;24023;51.280;7.148;2024-02-04T18:35:09;5.1;;;2.0;;
38220;SDS011;24023;51.280;7.148;2024-02-04T18:40:12;5.1;;;2.0;;
38220;SDS011;24023;51.280;7.148;2024-02-04T18:45:14;3.2;;;1.8;;
38220;SDS011;24023;51.280;7.148;2024-02-04T18:50:12;3.2;;;1.8;;
38220;SDS011;24023;51.280;7.148;2024-02-04T18:55:10;3.2;;;1.8;;
38220;SDS011;24023;51.280;7.148;2024-02-04T19:00:18;3.3;;;1.9;;
38220;SDS011;24023;51.280;7.148;2024-02-04T19:05:09;3.3;;;1.9;;
38220;SDS011;24023;51.280;7.148;2024-02-04T19:10:13;3.7;;;1.8;;
38220;SDS011;24023;51.280;7.148;2024-02-04T19:15:11;3.7;;;1.8;;
38220;SDS011;24023;51.280;7.148;2024-02-04T19:20:12;4.6;;;2.1;;
38220;SDS011;24023;51.280;7.148;2024-02-04T19:25:11;2.5;;;1.4;;
38220;SDS011;24023;51.280;7.148;2024-02-04T19:30:14;2.5;;;1.4;;
38220;SDS011;24023;51.280;7.148;2024-02-04T19:35:12;2.5;;;1.4;;
38220;SDS011;24023;51.280;7.148;2024-02-04T19:40:12;2.6;;;1.5;;
38220;SDS011;24023;51.280;7.148;2024-02-04T19:45:13;2.6;;;1.5;;
38220;SDS011;24023;51.280;7.148;2024-02-04T19:50:12;1.6;;;1.2;;
38220;SDS011;24023;51.280;7.148;2024-02-04T19:55:10;1.6;;;1.2;;
38220;SDS011;24023;51.280;7.148;2024-02-04T20:00:21;2.1;;;1.4;;
38220;SDS011;24023;51.280;7.148;2024-02-04T20:05:10;2.1;;;1.4;;
38220;SDS011;24023;51.280;7.148;2024-02-04T20:10:12;2.1;;;1.4;;
38220;SDS011;24023;51.280;7.148;2024-02-04T20:15:11;2.2;;;1.3;;
38220;SDS011;24023;51.280;7.148;2024-02-04T20:20:12;2.2;;;1.3;;
38220;SDS011;24023;51.280;7.148;2024-02-04T20:25:09;1.7;;;1.3;;
38220;SDS011;24023;51.280;7.148;2024-02-04T20:30:15;1.7;;;1.3;;
38220;SDS011;24023;51.280;7.148;2024-02-04T20:35:09;1.7;;;1.3;;
38220;SDS011;24023;51.280;7.148;2024-02-04T20:40:11;1.5;;;1.2;;
38220;SDS011;24023;51.280;7.148;2024-02-04T20:45:13;1.5;;;1.2;;
38220;SDS011;24023;51.280;7.148;2024-02-04T20:50:12;1.4;;;1.1;;
38220;SDS011;24023;51.280;7.148;2024-02-04T20:55:10;1.4;;;1.1;;
38220;SDS011;24023;51.280;7.148;2024-02-04T21:00:19;1.4;;;1.1;;
38220;SDS011;24023;51.280;7.148;2024-02-04T21:05:10;1.5;;;0.8;;
38220;SDS011;24023;51.280;7.148;2024-02-04T21:10:11;1.5;;;0.8;;
38220;SDS011;24023;51.280;7.148;2024-02-04T21:15:11;1.2;;;0.8;;
38220;SDS011;24023;51.280;7.148;2024-02-04T21:20:12;1.2;;;0.8;;
38220;SDS011;24023;51.280;7.148;2024-02-04T21:25:09;1.2;;;0.8;;
38220;SDS011;24023;51.280;7.148;2024-02-04T21:30:14;1.4;;;1.1;;
38220;SDS011;24023;51.280;7.148;2024-02-04T21:35:10;1.4;;;1.1;;
38220;SDS011;24023;51.280;7.148;2024-02-04T21:40:12;2.2;;;1.1;;
38220;SDS011;24023;51.280;7.148;2024-02-04T21:45:13;2.2;;;1.1;;
38220;SDS011;24023;51.280;7.148;2024-02-04T21:50:12;1.8;;;1.0;;
38220;SDS011;24023;51.280;7.148;2024-02-04T21:55:10;1.8;;;1.0;;
38220;SDS011;24023;51.280;7.148;2024-02-04T22:00:18;1.8;;;1.0;;
38220;SDS011;24023;51.280;7.148;2024-02-04T22:05:10;2.7;;;1.0;;
38220;SDS011;24023;51.280;7.148;2024-02-04T22:10:12;2.7;;;1.0;;
38220;SDS011;24023;51.280;7.148;2024-02-04T22:15:11;2.2;;;1.3;;
38220;SDS011;24023;51.280;7.148;2024-02-04T22:20:12;2.2;;;1.3;;
38220;SDS011;24023;51.280;7.148;2024-02-04T22:25:10;2.2;;;1.3;;
38220;SDS011;24023;51.280;7.148;2024-02-04T22:30:14;2.0;;;1.4;;
38220;SDS011;24023;51.280;7.148;2024-02-04T22:35:10;2.0;;;1.4;;
38220;SDS011;24023;51.280;7.148;2024-02-04T22:40:11;2.1;;;1.4;;
38220;SDS011;24023;51.280;7.148;2024-02-04T22:45:14;2.1;;;1.4;;
38220;SDS011;24023;51.280;7.148;2024-02-04T22:50:16;2.1;;;1.4;;
38220;SDS011;24023;51.280;7.148;2024-02-04T22:55:10;2.4;;;1.3;;
38220;SDS011;24023;51.280;7.148;2024-02-04T23:00:27;2.4;;;1.3;;
38220;SDS011;24023;51.280;7.148;2024-02-04T23:05:12;2.6;;;1.3;;
38220;SDS011;24023;51.280;7.148;2024-02-04T23:10:12;2.6;;;1.3;;
38220;SDS011;24023;51.280;7.148;2024-02-04T23:15:12;4.0;;;1.6;;
38220;SDS011;24023;51.280;7.148;2024-02-04T23:20:12;4.0;;;1.6;;
38220;SDS011;24023;51.280;7.148;2024-02-04T23:25:10;4.0;;;1.6;;
38220;SDS011;24023;51.280;7.148;2024-02-04T23:30:13;3.8;;;1.8;;
38220;SDS011;24023;51.280;7.148;2024-02-04T23:35:11;5.8;;;2.3;;
38220;SDS011;24023;51.280;7.148;2024-02-04T23:40:13;5.8;;;2.3;;
38220;SDS011;24023;51.280;7.148;2024-02-04T23:45:13;5.8;;;2.3;;
38220;SDS011;24023;51.280;7.148;2024-02-04T23:50:12;5.8;;;2.3;;
38220;SDS011;24023;51.280;7.148;2024-02-04T23:55:10;7.4;;;2.5;;
